Time;durP1;ratioP1;P1;durP2;ratioP2;P2;SDS_P1;SDS_P2;PMS_P1;PMS_P2;Temp;Humidity;BMP_temperature;BMP_pressure;BME280_temperature;BME280_humidity;BME280_pressure;Samples;Min_cycle;Max_cycle;Signal;HPM_P1;HPM_P2
2021/12/15 00:00:06;;;;;;;13.07;9.13;;;;;;;;;;5137220;27;20832;-75
2021/12/15 00:02:33;;;;;;;15.30;9.33;;;;;;;;;;5144671;27;20443;-75
2021/12/15 00:05:01;;;;;;;13.57;10.07;;;;;;;;;;5120786;27;20469;-75
2021/12/15 00:07:29;;;;;;;12.77;9.13;;;;;;;;;;5127647;27;20442;-76
2021/12/15 00:09:56;;;;;;;13.77;9.63;;;;;;;;;;5131119;27;20929;-75
2021/12/15 00:12:26;;;;;;;15.73;9.77;;;;;;;;;;5120176;27;20457;-75
2021/12/15 00:14:53;;;;;;;13.70;9.83;;;;;;;;;;5136253;27;20568;-75
2021/12/15 00:17:22;;;;;;;15.33;10.00;;;;;;;;;;5142844;27;20432;-75
2021/12/15 00:19:50;;;;;;;14.77;9.80;;;;;;;;;;5133557;27;20488;-77
2021/12/15 00:22:17;;;;;;;16.23;9.60;;;;;;;;;;5113219;28;20524;-76
2021/12/15 00:24:45;;;;;;;17.30;10.47;;;;;;;;;;5113175;28;20494;-76
2021/12/15 00:27:12;;;;;;;15.73;10.30;;;;;;;;;;5113911;28;20442;-76
2021/12/15 00:29:40;;;;;;;16.57;10.10;;;;;;;;;;5114984;28;21104;-75
2021/12/15 00:32:08;;;;;;;12.93;9.67;;;;;;;;;;5119870;27;20449;-76
2021/12/15 00:34:37;;;;;;;14.20;9.77;;;;;;;;;;5132203;27;20942;-75
2021/12/15 00:37:05;;;;;;;13.63;9.07;;;;;;;;;;5140631;27;20786;-75
2021/12/15 00:39:32;;;;;;;11.50;8.43;;;;;;;;;;5140248;27;20491;-77
2021/12/15 00:41:59;;;;;;;15.97;9.93;;;;;;;;;;5118542;27;20467;-76
2021/12/15 00:44:27;;;;;;;12.63;9.13;;;;;;;;;;5118342;27;20460;-76
2021/12/15 00:46:55;;;;;;;13.20;9.00;;;;;;;;;;5132484;27;20455;-76
2021/12/15 00:49:23;;;;;;;10.50;8.27;;;;;;;;;;5132905;27;20811;-75
2021/12/15 00:51:51;;;;;;;9.83;7.20;;;;;;;;;;5132054;27;20458;-76
2021/12/15 00:54:18;;;;;;;11.33;8.00;;;;;;;;;;5141289;27;20455;-76
2021/12/15 00:56:45;;;;;;;10.80;7.77;;;;;;;;;;5135484;27;20465;-75
2021/12/15 00:59:13;;;;;;;11.83;7.50;;;;;;;;;;5133149;27;20475;-76
2021/12/15 01:01:41;;;;;;;10.57;7.63;;;;;;;;;;5132548;27;20445;-76
2021/12/15 01:04:11;;;;;;;11.90;8.50;;;;;;;;;;5132256;27;20448;-75
2021/12/15 01:06:39;;;;;;;10.23;7.07;;;;;;;;;;5113156;28;20549;-76
2021/12/15 01:09:08;;;;;;;13.63;7.47;;;;;;;;;;5114326;28;20940;-76
2021/12/15 01:11:46;;;;;;;12.63;8.10;;;;;;;;;;5114424;28;20511;-76
2021/12/15 01:22:23;;;;;;;10.17;7.27;;;;;;;;;;5131338;27;20483;-75
2021/12/15 01:24:50;;;;;;;7.23;6.10;;;;;;;;;;5133352;27;20463;-74
2021/12/15 01:27:17;;;;;;;10.13;6.10;;;;;;;;;;5132362;27;20442;-75
2021/12/15 01:29:45;;;;;;;6.53;5.00;;;;;;;;;;5122954;27;20458;-74
2021/12/15 01:32:12;;;;;;;6.23;4.90;;;;;;;;;;5118508;27;20454;-75
2021/12/15 01:34:40;;;;;;;6.70;4.80;;;;;;;;;;5121213;27;20454;-75
2021/12/15 01:37:08;;;;;;;7.20;5.13;;;;;;;;;;5127397;27;20422;-77
2021/12/15 01:39:36;;;;;;;6.30;5.03;;;;;;;;;;5139571;27;20634;-75
2021/12/15 01:42:03;;;;;;;5.23;4.27;;;;;;;;;;5146816;27;20436;-75
2021/12/15 01:47:11;;;;;;;4.90;4.10;;;;;;;;;;5124140;27;20571;-76
2021/12/15 01:49:42;;;;;;;5.07;4.10;;;;;;;;;;5130142;27;20445;-75
2021/12/15 01:52:11;;;;;;;4.43;4.00;;;;;;;;;;5120205;27;20446;-75
2021/12/15 01:54:39;;;;;;;5.00;3.93;;;;;;;;;;5139005;27;20441;-76
2021/12/15 01:57:06;;;;;;;4.90;3.63;;;;;;;;;;5140832;27;20429;-75
2021/12/15 01:59:34;;;;;;;5.60;3.97;;;;;;;;;;5151743;27;20838;-75
2021/12/15 02:02:01;;;;;;;4.37;3.80;;;;;;;;;;5137767;27;20438;-75
2021/12/15 02:04:29;;;;;;;4.10;3.57;;;;;;;;;;5133299;27;20448;-74
2021/12/15 02:06:58;;;;;;;3.97;3.43;;;;;;;;;;5115549;27;20469;-75
2021/12/15 02:09:46;;;;;;;4.87;3.07;;;;;;;;;;5123136;27;20517;-75
2021/12/15 02:12:16;;;;;;;3.90;3.10;;;;;;;;;;5137419;27;20459;-76
2021/12/15 02:14:43;;;;;;;5.07;3.37;;;;;;;;;;5134537;27;20525;-75
2021/12/15 02:17:10;;;;;;;3.20;2.90;;;;;;;;;;5132133;27;20783;-75
2021/12/15 02:19:38;;;;;;;4.60;3.43;;;;;;;;;;5130961;27;20483;-75
2021/12/15 02:22:06;;;;;;;3.80;3.30;;;;;;;;;;5132299;27;20446;-75
2021/12/15 02:24:35;;;;;;;3.37;3.03;;;;;;;;;;5127152;27;20558;-75
2021/12/15 02:27:02;;;;;;;3.67;3.00;;;;;;;;;;5125309;27;20548;-75
2021/12/15 02:29:34;;;;;;;4.30;3.07;;;;;;;;;;5135241;27;20449;-75
2021/12/15 02:32:11;;;;;;;4.70;3.23;;;;;;;;;;5148104;27;20520;-75
2021/12/15 02:37:22;;;;;;;3.73;3.00;;;;;;;;;;5130303;27;20418;-74
2021/12/15 02:39:50;;;;;;;3.30;2.93;;;;;;;;;;5129471;27;20517;-75
2021/12/15 02:42:18;;;;;;;3.37;3.03;;;;;;;;;;5118134;27;20458;-74
2021/12/15 02:44:46;;;;;;;3.50;3.20;;;;;;;;;;5130858;27;20488;-74
2021/12/15 02:47:14;;;;;;;3.20;2.73;;;;;;;;;;5140038;27;20450;-75
2021/12/15 02:49:41;;;;;;;3.80;2.97;;;;;;;;;;5143961;27;20459;-74
2021/12/15 02:52:08;;;;;;;4.10;3.47;;;;;;;;;;5111354;28;20446;-74
2021/12/15 02:54:37;;;;;;;3.30;2.97;;;;;;;;;;5108588;28;20946;-74
2021/12/15 02:57:10;;;;;;;3.20;2.47;;;;;;;;;;5111141;28;20438;-75
2021/12/15 02:59:47;;;;;;;3.40;2.60;;;;;;;;;;5113942;27;20477;-75
2021/12/15 03:02:33;;;;;;;4.50;3.60;;;;;;;;;;5138668;27;20436;-75
2021/12/15 03:05:07;;;;;;;5.60;3.13;;;;;;;;;;5133662;27;20986;-75
2021/12/15 03:07:45;;;;;;;3.73;3.00;;;;;;;;;;5111040;28;20458;-75
2021/12/15 03:15:48;;;;;;;4.00;2.83;;;;;;;;;;5119363;27;20504;-75
2021/12/15 03:18:17;;;;;;;2.77;2.17;;;;;;;;;;5137262;27;20460;-75
2021/12/15 03:20:48;;;;;;;2.70;2.23;;;;;;;;;;5145365;27;20478;-74
2021/12/15 03:23:18;;;;;;;3.13;2.47;;;;;;;;;;5151734;27;20784;-75
2021/12/15 03:25:46;;;;;;;4.70;2.57;;;;;;;;;;5150511;27;20456;-74
2021/12/15 03:33:44;;;;;;;3.00;2.33;;;;;;;;;;5133200;27;20450;-76
2021/12/15 03:36:14;;;;;;;2.57;2.37;;;;;;;;;;5137983;27;20452;-75
2021/12/15 03:38:42;;;;;;;2.60;2.27;;;;;;;;;;5130904;27;20469;-75
2021/12/15 03:41:14;;;;;;;3.03;2.37;;;;;;;;;;5129468;28;20858;-75
2021/12/15 03:43:41;;;;;;;2.70;2.13;;;;;;;;;;5122616;27;20470;-76
2021/12/15 03:46:10;;;;;;;2.80;2.60;;;;;;;;;;5112832;28;20478;-76
2021/12/15 03:48:38;;;;;;;2.63;2.40;;;;;;;;;;5125240;27;20457;-75
2021/12/15 03:51:06;;;;;;;2.43;2.10;;;;;;;;;;5154858;27;20432;-75
2021/12/15 03:53:34;;;;;;;2.80;2.30;;;;;;;;;;5155353;27;20951;-75
2021/12/15 03:56:02;;;;;;;2.67;2.47;;;;;;;;;;5144960;27;20460;-76
2021/12/15 03:58:31;;;;;;;3.20;2.40;;;;;;;;;;5138311;27;20436;-75
2021/12/15 04:01:00;;;;;;;3.93;2.60;;;;;;;;;;5151316;27;20464;-76
2021/12/15 04:03:28;;;;;;;3.83;2.87;;;;;;;;;;5137058;27;20799;-76
2021/12/15 04:05:56;;;;;;;2.63;2.30;;;;;;;;;;5133925;27;20454;-75
2021/12/15 04:08:23;;;;;;;4.57;2.87;;;;;;;;;;5134533;27;20437;-75
2021/12/15 04:10:51;;;;;;;4.60;2.87;;;;;;;;;;5122955;27;20461;-75
2021/12/15 04:13:18;;;;;;;3.07;2.77;;;;;;;;;;5123524;27;20446;-75
2021/12/15 04:15:53;;;;;;;2.60;2.40;;;;;;;;;;5135619;27;20471;-75
2021/12/15 04:18:21;;;;;;;4.00;2.77;;;;;;;;;;5137368;27;20460;-76
2021/12/15 04:20:48;;;;;;;3.60;2.73;;;;;;;;;;5142794;27;20473;-75
2021/12/15 04:23:19;;;;;;;3.77;2.67;;;;;;;;;;5152486;27;20470;-76
2021/12/15 04:25:47;;;;;;;5.17;3.17;;;;;;;;;;5140715;27;20838;-76
2021/12/15 04:28:15;;;;;;;2.90;2.60;;;;;;;;;;5123024;27;20449;-76
2021/12/15 04:30:46;;;;;;;4.53;2.80;;;;;;;;;;5114153;27;20785;-75
2021/12/15 04:33:17;;;;;;;3.50;3.20;;;;;;;;;;5112663;27;20458;-75
2021/12/15 04:35:44;;;;;;;3.67;2.93;;;;;;;;;;5136834;27;20472;-74
2021/12/15 04:38:13;;;;;;;3.93;3.33;;;;;;;;;;5138534;27;20484;-75
2021/12/15 04:40:41;;;;;;;3.83;2.83;;;;;;;;;;5142586;27;20484;-75
2021/12/15 04:43:08;;;;;;;3.50;3.20;;;;;;;;;;5121958;27;20452;-76
2021/12/15 04:45:35;;;;;;;4.00;3.47;;;;;;;;;;5112785;28;20579;-76
2021/12/15 04:48:03;;;;;;;3.73;2.90;;;;;;;;;;5114050;28;20662;-76
2021/12/15 04:50:32;;;;;;;3.47;2.80;;;;;;;;;;5117548;27;20922;-75
2021/12/15 04:53:02;;;;;;;3.63;2.80;;;;;;;;;;5142066;27;20786;-75
2021/12/15 04:55:31;;;;;;;4.30;3.20;;;;;;;;;;5146276;27;20468;-76
2021/12/15 04:57:58;;;;;;;4.13;3.37;;;;;;;;;;5141198;27;20529;-75
2021/12/15 05:00:28;;;;;;;5.13;3.20;;;;;;;;;;5131410;27;20480;-75
2021/12/15 05:02:56;;;;;;;3.10;2.80;;;;;;;;;;5133303;27;20482;-75
2021/12/15 05:05:24;;;;;;;3.80;3.37;;;;;;;;;;5129816;27;21133;-76
2021/12/15 05:07:53;;;;;;;3.83;2.80;;;;;;;;;;5121450;27;21009;-76
2021/12/15 05:10:21;;;;;;;4.40;3.37;;;;;;;;;;5140364;27;20420;-75
2021/12/15 05:12:48;;;;;;;4.57;3.10;;;;;;;;;;5123969;27;20951;-75
2021/12/15 05:15:16;;;;;;;3.63;3.30;;;;;;;;;;5114459;28;21096;-75
2021/12/15 05:17:43;;;;;;;3.23;2.93;;;;;;;;;;5113835;27;20512;-75
2021/12/15 05:20:11;;;;;;;4.50;4.00;;;;;;;;;;5111087;28;20477;-75
2021/12/15 05:22:39;;;;;;;6.10;2.90;;;;;;;;;;5109590;27;20469;-75
2021/12/15 05:25:08;;;;;;;3.10;2.80;;;;;;;;;;5127573;27;20476;-76
2021/12/15 05:27:38;;;;;;;3.77;3.37;;;;;;;;;;5139233;27;20449;-75
2021/12/15 05:30:06;;;;;;;3.73;3.30;;;;;;;;;;5151847;27;20437;-75
2021/12/15 05:32:34;;;;;;;4.30;3.90;;;;;;;;;;5151068;27;20437;-76
2021/12/15 05:35:01;;;;;;;5.47;4.20;;;;;;;;;;5153229;27;20461;-75
2021/12/15 05:37:29;;;;;;;3.70;3.30;;;;;;;;;;5140431;27;20460;-75
2021/12/15 05:39:57;;;;;;;3.73;3.27;;;;;;;;;;5125805;27;20473;-75
2021/12/15 05:42:26;;;;;;;4.33;3.20;;;;;;;;;;5139173;27;20457;-76
2021/12/15 05:44:53;;;;;;;3.43;2.90;;;;;;;;;;5131385;27;20477;-76
2021/12/15 05:47:21;;;;;;;3.83;3.20;;;;;;;;;;5128234;27;20795;-76
2021/12/15 05:49:48;;;;;;;4.00;2.90;;;;;;;;;;5131639;27;20441;-76
2021/12/15 05:52:15;;;;;;;5.23;3.83;;;;;;;;;;5129562;27;20453;-75
2021/12/15 05:54:42;;;;;;;4.27;2.90;;;;;;;;;;5127900;27;20478;-76
2021/12/15 05:57:09;;;;;;;3.50;3.13;;;;;;;;;;5121585;27;20464;-76
2021/12/15 05:59:38;;;;;;;3.57;3.20;;;;;;;;;;5133658;27;20459;-77
2021/12/15 06:02:05;;;;;;;4.13;3.10;;;;;;;;;;5123062;27;20471;-74
2021/12/15 06:04:33;;;;;;;3.23;2.90;;;;;;;;;;5138881;27;20457;-76
2021/12/15 06:07:00;;;;;;;3.57;3.07;;;;;;;;;;5135036;27;20455;-75
2021/12/15 06:09:27;;;;;;;5.27;3.20;;;;;;;;;;5131125;27;20473;-75
2021/12/15 06:11:54;;;;;;;3.80;3.23;;;;;;;;;;5130686;27;20944;-75
2021/12/15 06:14:24;;;;;;;4.70;3.47;;;;;;;;;;5111654;27;20434;-75
2021/12/15 06:16:53;;;;;;;3.13;2.83;;;;;;;;;;5124422;27;20476;-75
2021/12/15 06:19:20;;;;;;;4.10;3.70;;;;;;;;;;5132895;27;20454;-76
2021/12/15 06:21:47;;;;;;;4.97;3.63;;;;;;;;;;5134679;27;20473;-75
2021/12/15 06:24:15;;;;;;;5.67;3.80;;;;;;;;;;5121833;27;20458;-76
2021/12/15 06:26:42;;;;;;;5.30;3.90;;;;;;;;;;5137920;27;20504;-75
2021/12/15 06:29:09;;;;;;;8.43;4.97;;;;;;;;;;5133823;27;20800;-75
2021/12/15 06:31:38;;;;;;;6.77;4.83;;;;;;;;;;5132358;27;20433;-75
2021/12/15 06:34:06;;;;;;;9.87;5.80;;;;;;;;;;5132500;27;20836;-74
2021/12/15 06:36:34;;;;;;;6.20;5.10;;;;;;;;;;5124147;27;20553;-75
2021/12/15 06:39:01;;;;;;;6.07;4.13;;;;;;;;;;5122716;27;20702;-75
2021/12/15 06:41:28;;;;;;;4.43;3.83;;;;;;;;;;5107313;27;20485;-75
2021/12/15 06:43:57;;;;;;;4.90;3.93;;;;;;;;;;5114712;27;20452;-75
2021/12/15 06:46:50;;;;;;;4.10;3.70;;;;;;;;;;5121820;27;20504;-75
2021/12/15 07:00:06;;;;;;;3.20;2.70;;;;;;;;;;5126100;27;20992;-75
2021/12/15 07:02:33;;;;;;;3.27;2.30;;;;;;;;;;5113113;27;21017;-74
2021/12/15 07:05:02;;;;;;;3.47;2.70;;;;;;;;;;5130803;27;20465;-75
2021/12/15 07:07:29;;;;;;;4.60;3.27;;;;;;;;;;5113556;27;20465;-74
2021/12/15 07:09:56;;;;;;;5.97;3.00;;;;;;;;;;5102165;28;20445;-74
2021/12/15 07:12:23;;;;;;;3.90;2.87;;;;;;;;;;5108368;27;20464;-75
2021/12/15 07:14:50;;;;;;;5.10;3.10;;;;;;;;;;5117662;27;20472;-75
2021/12/15 07:17:21;;;;;;;4.77;3.40;;;;;;;;;;5144820;27;20871;-75
2021/12/15 07:20:05;;;;;;;5.93;3.60;;;;;;;;;;5129523;27;21037;-75
2021/12/15 07:22:43;;;;;;;3.90;3.03;;;;;;;;;;5130946;27;20481;-75
2021/12/15 07:25:11;;;;;;;3.10;2.80;;;;;;;;;;5116321;27;20480;-75
2021/12/15 07:27:38;;;;;;;4.50;2.97;;;;;;;;;;5123428;27;20461;-75
2021/12/15 07:30:06;;;;;;;5.50;3.10;;;;;;;;;;5135783;27;20448;-74
2021/12/15 07:32:34;;;;;;;3.20;2.60;;;;;;;;;;5129387;27;20457;-75
2021/12/15 07:35:01;;;;;;;3.13;2.83;;;;;;;;;;5128702;27;20473;-75
2021/12/15 07:37:28;;;;;;;3.60;2.67;;;;;;;;;;5119490;27;20451;-75
2021/12/15 07:39:58;;;;;;;3.97;2.90;;;;;;;;;;5129826;27;20480;-75
2021/12/15 07:42:33;;;;;;;4.33;3.33;;;;;;;;;;5125390;27;20892;-76
2021/12/15 07:45:01;;;;;;;3.83;3.00;;;;;;;;;;5135588;27;20816;-74
2021/12/15 07:47:28;;;;;;;3.90;3.30;;;;;;;;;;5136280;27;20449;-74
2021/12/15 07:49:57;;;;;;;6.50;3.53;;;;;;;;;;5150390;27;20830;-74
2021/12/15 07:52:24;;;;;;;6.50;3.23;;;;;;;;;;5147686;27;20819;-74
2021/12/15 07:54:52;;;;;;;4.47;2.60;;;;;;;;;;5117607;27;20486;-74
2021/12/15 07:57:22;;;;;;;3.60;3.00;;;;;;;;;;5110969;28;20464;-74
2021/12/15 07:59:50;;;;;;;3.90;2.83;;;;;;;;;;5111701;28;20468;-74
2021/12/15 08:02:17;;;;;;;3.80;3.20;;;;;;;;;;5111219;28;20610;-74
2021/12/15 08:04:45;;;;;;;3.70;3.00;;;;;;;;;;5130911;27;20535;-74
2021/12/15 08:07:12;;;;;;;3.70;2.80;;;;;;;;;;5130207;27;20815;-74
2021/12/15 08:09:39;;;;;;;3.87;3.27;;;;;;;;;;5135335;27;20432;-74
2021/12/15 08:12:06;;;;;;;3.03;2.57;;;;;;;;;;5130113;27;20449;-73
2021/12/15 08:14:35;;;;;;;4.13;2.80;;;;;;;;;;5130627;27;20516;-73
2021/12/15 08:17:02;;;;;;;9.80;4.10;;;;;;;;;;5123330;27;20986;-74
2021/12/15 08:19:29;;;;;;;4.33;3.30;;;;;;;;;;5128501;27;20457;-74
2021/12/15 08:21:56;;;;;;;5.50;3.03;;;;;;;;;;5125216;27;20473;-74
2021/12/15 08:24:24;;;;;;;4.10;3.07;;;;;;;;;;5124713;27;20442;-74
2021/12/15 08:26:51;;;;;;;5.60;4.23;;;;;;;;;;5111085;28;20442;-74
2021/12/15 08:29:19;;;;;;;8.30;4.27;;;;;;;;;;5126442;27;20449;-74
2021/12/15 08:31:47;;;;;;;7.57;5.20;;;;;;;;;;5136327;27;20456;-75
2021/12/15 08:34:14;;;;;;;5.17;3.90;;;;;;;;;;5123970;27;20457;-74
2021/12/15 08:36:42;;;;;;;6.70;3.90;;;;;;;;;;5129920;27;20478;-74
2021/12/15 08:39:10;;;;;;;6.67;3.77;;;;;;;;;;5128234;27;20492;-73
2021/12/15 08:41:37;;;;;;;5.63;3.73;;;;;;;;;;5117318;27;20477;-76
2021/12/15 08:44:08;;;;;;;6.73;4.50;;;;;;;;;;5129897;27;20453;-75
2021/12/15 08:46:40;;;;;;;7.30;4.37;;;;;;;;;;5140627;27;20463;-74
2021/12/15 08:49:09;;;;;;;5.57;4.33;;;;;;;;;;5127103;27;20931;-74
2021/12/15 08:51:37;;;;;;;8.30;3.80;;;;;;;;;;5119777;27;20431;-74
2021/12/15 08:54:06;;;;;;;4.90;4.40;;;;;;;;;;5133347;27;20441;-74
2021/12/15 08:56:34;;;;;;;6.70;4.20;;;;;;;;;;5121319;27;20826;-74
2021/12/15 08:59:01;;;;;;;7.50;3.80;;;;;;;;;;5113456;27;20446;-74
2021/12/15 09:01:28;;;;;;;5.50;3.60;;;;;;;;;;5131041;27;20472;-74
2021/12/15 09:03:56;;;;;;;5.03;3.73;;;;;;;;;;5141062;27;20445;-74
2021/12/15 09:06:25;;;;;;;4.53;3.43;;;;;;;;;;5142387;27;20457;-75
2021/12/15 09:08:52;;;;;;;4.20;2.70;;;;;;;;;;5133759;27;20421;-74
2021/12/15 09:11:20;;;;;;;2.80;2.50;;;;;;;;;;5125128;27;20947;-75
2021/12/15 09:13:49;;;;;;;2.80;2.10;;;;;;;;;;5120788;27;20459;-74
2021/12/15 09:16:17;;;;;;;2.60;2.30;;;;;;;;;;5126997;27;20476;-74
2021/12/15 09:18:46;;;;;;;3.10;2.47;;;;;;;;;;5116356;27;20460;-74
2021/12/15 09:21:15;;;;;;;4.33;2.20;;;;;;;;;;5120667;27;21409;-74
2021/12/15 09:23:44;;;;;;;2.93;2.17;;;;;;;;;;5107045;27;20875;-75
2021/12/15 09:26:11;;;;;;;3.10;2.43;;;;;;;;;;5108457;27;21006;-76
2021/12/15 09:28:39;;;;;;;5.50;3.60;;;;;;;;;;5119752;27;20437;-73
2021/12/15 09:31:07;;;;;;;3.67;3.00;;;;;;;;;;5109062;27;20458;-75
2021/12/15 09:33:35;;;;;;;6.03;3.10;;;;;;;;;;5114836;27;20873;-76
2021/12/15 09:36:04;;;;;;;7.63;3.80;;;;;;;;;;5130462;27;20464;-75
2021/12/15 09:38:31;;;;;;;6.00;4.00;;;;;;;;;;5134802;27;20468;-74
2021/12/15 09:41:01;;;;;;;5.13;3.57;;;;;;;;;;5139525;27;20433;-75
2021/12/15 09:43:30;;;;;;;7.63;3.73;;;;;;;;;;5138411;27;20502;-74
2021/12/15 09:46:04;;;;;;;4.30;3.10;;;;;;;;;;5133163;27;20822;-76
2021/12/15 10:02:11;;;;;;;6.00;3.20;;;;;;;;;;5146180;27;20571;-75
2021/12/15 10:04:45;;;;;;;12.10;4.10;;;;;;;;;;5153607;27;20440;-75
2021/12/15 10:07:21;;;;;;;4.90;2.90;;;;;;;;;;5142364;27;20445;-75
2021/12/15 10:18:13;;;;;;;4.60;3.27;;;;;;;;;;5125867;27;20436;-75
2021/12/15 10:20:40;;;;;;;3.43;2.93;;;;;;;;;;5136171;27;20453;-74
2021/12/15 10:23:10;;;;;;;5.17;3.33;;;;;;;;;;5129071;27;20992;-76
2021/12/15 10:25:42;;;;;;;3.30;2.63;;;;;;;;;;5120321;27;20478;-75
2021/12/15 10:28:11;;;;;;;6.03;3.20;;;;;;;;;;5118557;27;20484;-74
2021/12/15 10:30:40;;;;;;;3.73;2.73;;;;;;;;;;5115273;27;20448;-75
2021/12/15 10:33:08;;;;;;;5.43;3.50;;;;;;;;;;5127769;27;20820;-75
2021/12/15 10:35:37;;;;;;;3.90;2.90;;;;;;;;;;5127045;27;20477;-74
2021/12/15 10:38:09;;;;;;;6.60;2.77;;;;;;;;;;5133282;27;20564;-73
2021/12/15 10:40:40;;;;;;;4.40;2.90;;;;;;;;;;5132943;27;20465;-74
2021/12/15 10:43:10;;;;;;;4.33;3.17;;;;;;;;;;5139864;27;20492;-73
2021/12/15 10:45:39;;;;;;;4.70;2.90;;;;;;;;;;5127672;27;20530;-73
2021/12/15 10:48:14;;;;;;;2.77;2.57;;;;;;;;;;5128549;27;20453;-73
2021/12/15 10:50:42;;;;;;;5.97;2.60;;;;;;;;;;5130305;27;20469;-73
2021/12/15 10:53:09;;;;;;;4.13;3.00;;;;;;;;;;5123337;27;20449;-75
2021/12/15 10:55:37;;;;;;;4.27;3.40;;;;;;;;;;5116465;27;20557;-75
2021/12/15 10:58:25;;;;;;;4.63;2.77;;;;;;;;;;5112578;28;20435;-74
2021/12/15 11:00:54;;;;;;;4.10;3.00;;;;;;;;;;5131310;27;21429;-74
2021/12/15 11:03:23;;;;;;;2.77;2.33;;;;;;;;;;5138229;27;20560;-75
2021/12/15 11:05:50;;;;;;;2.57;2.10;;;;;;;;;;5111351;27;20474;-75
2021/12/15 11:08:22;;;;;;;2.90;2.03;;;;;;;;;;5114050;27;20461;-75
2021/12/15 11:10:51;;;;;;;4.03;2.97;;;;;;;;;;5115728;27;20461;-73
2021/12/15 11:13:18;;;;;;;4.17;2.63;;;;;;;;;;5122980;27;20946;-73
2021/12/15 11:15:46;;;;;;;3.53;2.63;;;;;;;;;;5136611;27;20977;-75
2021/12/15 11:18:17;;;;;;;5.83;4.23;;;;;;;;;;5133251;27;20464;-75
2021/12/15 11:20:45;;;;;;;5.90;3.77;;;;;;;;;;5121956;27;20803;-75
2021/12/15 11:23:13;;;;;;;4.60;2.63;;;;;;;;;;5112599;27;20564;-72
2021/12/15 11:25:42;;;;;;;3.97;2.97;;;;;;;;;;5129465;27;20816;-74
2021/12/15 11:28:11;;;;;;;3.47;2.40;;;;;;;;;;5116690;27;20434;-73
2021/12/15 11:30:41;;;;;;;2.87;2.40;;;;;;;;;;5125196;27;20449;-73
2021/12/15 11:33:09;;;;;;;5.53;2.63;;;;;;;;;;5135234;27;20449;-73
2021/12/15 11:35:39;;;;;;;9.20;4.10;;;;;;;;;;5134131;27;20461;-74
2021/12/15 11:38:07;;;;;;;11.27;5.40;;;;;;;;;;5130134;27;20809;-73
2021/12/15 11:40:40;;;;;;;17.33;6.47;;;;;;;;;;5115551;28;20441;-73
2021/12/15 11:43:08;;;;;;;11.37;6.07;;;;;;;;;;5110394;28;20478;-73
2021/12/15 11:45:36;;;;;;;9.43;3.83;;;;;;;;;;5117656;27;20478;-74
2021/12/15 11:48:18;;;;;;;6.77;3.07;;;;;;;;;;5119696;27;20514;-74
2021/12/15 11:50:47;;;;;;;6.87;3.90;;;;;;;;;;5134188;27;20459;-74
2021/12/15 11:53:15;;;;;;;6.57;3.60;;;;;;;;;;5125215;27;20939;-73
2021/12/15 11:55:43;;;;;;;4.90;2.97;;;;;;;;;;5110163;28;20477;-73
2021/12/15 11:58:10;;;;;;;7.60;4.00;;;;;;;;;;5122006;27;20826;-73
2021/12/15 12:00:37;;;;;;;11.13;4.80;;;;;;;;;;5120171;27;20472;-74
2021/12/15 12:03:04;;;;;;;8.00;4.40;;;;;;;;;;5135410;27;20468;-74
2021/12/15 12:05:32;;;;;;;8.13;4.03;;;;;;;;;;5134610;27;20469;-74
2021/12/15 12:08:02;;;;;;;6.03;4.03;;;;;;;;;;5118041;27;20464;-74
2021/12/15 12:10:32;;;;;;;5.33;3.80;;;;;;;;;;5135895;27;20464;-74
2021/12/15 12:13:06;;;;;;;5.67;3.00;;;;;;;;;;5117828;27;20434;-74
2021/12/15 12:15:35;;;;;;;4.70;2.80;;;;;;;;;;5112189;27;20474;-74
2021/12/15 12:18:05;;;;;;;5.23;3.10;;;;;;;;;;5134136;27;21037;-74
2021/12/15 12:20:34;;;;;;;4.03;3.00;;;;;;;;;;5144219;27;20436;-74
2021/12/15 12:23:04;;;;;;;6.77;4.07;;;;;;;;;;5131484;27;20584;-74
2021/12/15 12:25:33;;;;;;;6.13;3.80;;;;;;;;;;5115043;27;20500;-74
2021/12/15 12:28:01;;;;;;;5.57;3.03;;;;;;;;;;5122036;27;20464;-74
2021/12/15 12:30:29;;;;;;;6.60;3.60;;;;;;;;;;5124362;27;20458;-81
2021/12/15 12:32:58;;;;;;;7.20;3.83;;;;;;;;;;5113563;27;20500;-75
2021/12/15 12:35:27;;;;;;;6.37;3.10;;;;;;;;;;5117321;27;20553;-75
2021/12/15 12:37:56;;;;;;;7.13;3.80;;;;;;;;;;5129644;27;20880;-76
2021/12/15 12:40:27;;;;;;;5.27;3.60;;;;;;;;;;5135333;27;21026;-75
2021/12/15 12:42:54;;;;;;;6.80;4.10;;;;;;;;;;5142342;27;20483;-75
2021/12/15 12:45:30;;;;;;;6.20;4.30;;;;;;;;;;5137346;27;20985;-74
2021/12/15 12:48:14;;;;;;;6.57;3.60;;;;;;;;;;5126781;27;20445;-75
2021/12/15 12:51:06;;;;;;;6.30;4.40;;;;;;;;;;5129166;27;20536;-75
2021/12/15 12:59:25;;;;;;;5.90;3.50;;;;;;;;;;5119801;27;20435;-75
2021/12/15 13:01:52;;;;;;;5.67;3.90;;;;;;;;;;5137273;27;20977;-75
2021/12/15 13:04:19;;;;;;;6.00;4.23;;;;;;;;;;5139642;27;20469;-74
2021/12/15 13:06:46;;;;;;;5.97;3.60;;;;;;;;;;5128874;27;20473;-74
2021/12/15 13:09:16;;;;;;;5.80;3.53;;;;;;;;;;5112168;28;20457;-74
2021/12/15 13:11:48;;;;;;;6.10;4.13;;;;;;;;;;5086818;27;21013;-74
2021/12/15 13:14:16;;;;;;;4.90;3.40;;;;;;;;;;5112551;27;20517;-74
2021/12/15 13:16:46;;;;;;;6.40;3.60;;;;;;;;;;5126012;27;21001;-75
2021/12/15 13:19:16;;;;;;;4.60;3.40;;;;;;;;;;5139640;27;20948;-75
2021/12/15 13:21:50;;;;;;;4.00;3.23;;;;;;;;;;5128497;27;20945;-75
2021/12/15 13:28:40;;;;;;;5.60;3.97;;;;;;;;;;5125806;27;20469;-74
2021/12/15 13:30:02;;;;;;;3.70;3.30;;;;;;;;;;5116222;27;20436;-76
2021/12/15 13:32:32;;;;;;;10.20;4.93;;;;;;;;;;5131681;27;20457;-74
2021/12/15 13:35:00;;;;;;;15.37;9.00;;;;;;;;;;5141872;27;20542;-75
2021/12/15 13:37:42;;;;;;;9.60;7.70;;;;;;;;;;5153123;27;20449;-75
2021/12/15 13:40:11;;;;;;;6.30;5.27;;;;;;;;;;5129039;27;20455;-75
2021/12/15 13:42:50;;;;;;;5.63;4.77;;;;;;;;;;5128715;27;20832;-75
2021/12/15 13:45:32;;;;;;;6.90;4.77;;;;;;;;;;5134100;27;20946;-74
2021/12/15 13:47:59;;;;;;;7.43;4.93;;;;;;;;;;5139277;27;20452;-75
2021/12/15 13:50:29;;;;;;;6.40;5.00;;;;;;;;;;5128560;27;20481;-75
2021/12/15 13:52:57;;;;;;;7.60;4.77;;;;;;;;;;5133075;27;20482;-75
2021/12/15 13:55:25;;;;;;;9.03;5.13;;;;;;;;;;5128056;27;20810;-75
2021/12/15 13:57:56;;;;;;;8.40;4.83;;;;;;;;;;5129763;27;20498;-75
2021/12/15 14:00:26;;;;;;;7.03;4.73;;;;;;;;;;5127474;27;20469;-75
2021/12/15 14:02:57;;;;;;;5.97;4.40;;;;;;;;;;5138289;27;20556;-75
2021/12/15 14:05:25;;;;;;;5.30;4.40;;;;;;;;;;5134777;27;20457;-75
2021/12/15 14:07:54;;;;;;;7.20;4.90;;;;;;;;;;5125596;27;20481;-74
2021/12/15 14:10:35;;;;;;;7.00;5.10;;;;;;;;;;5112391;27;20465;-74
2021/12/15 14:13:06;;;;;;;7.83;5.17;;;;;;;;;;5110828;28;20819;-76
2021/12/15 14:15:48;;;;;;;6.20;4.33;;;;;;;;;;5116606;27;20477;-75
2021/12/15 14:18:16;;;;;;;5.43;4.50;;;;;;;;;;5130692;27;20461;-76
2021/12/15 14:20:44;;;;;;;5.00;4.50;;;;;;;;;;5128730;27;20811;-74
2021/12/15 14:23:15;;;;;;;9.37;7.00;;;;;;;;;;5125440;27;20484;-75
2021/12/15 14:25:42;;;;;;;6.30;4.67;;;;;;;;;;5111479;28;20462;-73
2021/12/15 14:28:12;;;;;;;9.27;6.70;;;;;;;;;;5111078;28;20439;-75
2021/12/15 14:30:39;;;;;;;7.83;6.07;;;;;;;;;;5119222;27;20462;-75
2021/12/15 14:33:18;;;;;;;8.57;7.30;;;;;;;;;;5138381;27;20425;-74
2021/12/15 14:35:45;;;;;;;8.10;6.90;;;;;;;;;;5140379;27;20480;-74
2021/12/15 14:38:13;;;;;;;11.80;7.00;;;;;;;;;;5132396;27;20465;-74
2021/12/15 14:40:40;;;;;;;9.63;6.73;;;;;;;;;;5132166;27;20524;-74
2021/12/15 14:43:07;;;;;;;9.63;7.10;;;;;;;;;;5132518;27;20989;-75
2021/12/15 14:45:35;;;;;;;9.07;6.30;;;;;;;;;;5122191;27;20482;-74
2021/12/15 14:48:03;;;;;;;10.70;7.63;;;;;;;;;;5114339;28;20533;-74
2021/12/15 14:50:30;;;;;;;11.03;7.40;;;;;;;;;;5114125;28;20795;-74
2021/12/15 14:52:57;;;;;;;11.43;8.00;;;;;;;;;;5124085;27;20451;-73
2021/12/15 14:55:26;;;;;;;9.97;7.77;;;;;;;;;;5136058;27;20476;-73
2021/12/15 14:57:53;;;;;;;10.07;7.83;;;;;;;;;;5133091;27;20950;-74
2021/12/15 15:00:22;;;;;;;8.73;7.37;;;;;;;;;;5131645;27;20447;-74
2021/12/15 15:02:52;;;;;;;10.87;8.27;;;;;;;;;;5131056;27;20452;-74
2021/12/15 15:05:24;;;;;;;10.73;8.10;;;;;;;;;;5130729;27;20807;-73
2021/12/15 15:07:54;;;;;;;12.53;8.13;;;;;;;;;;5120255;27;20946;-75
2021/12/15 15:10:23;;;;;;;10.83;8.20;;;;;;;;;;5114272;27;20457;-74
2021/12/15 15:12:51;;;;;;;11.10;8.60;;;;;;;;;;5114617;27;20446;-74
2021/12/15 15:15:21;;;;;;;9.63;7.67;;;;;;;;;;5125357;27;20462;-74
2021/12/15 15:17:54;;;;;;;10.20;8.17;;;;;;;;;;5134875;27;20448;-73
2021/12/15 15:20:22;;;;;;;11.30;8.77;;;;;;;;;;5127491;27;20845;-74
2021/12/15 15:22:54;;;;;;;9.37;7.10;;;;;;;;;;5130871;27;20438;-75
2021/12/15 15:25:23;;;;;;;9.20;8.00;;;;;;;;;;5130957;27;20463;-73
2021/12/15 15:27:53;;;;;;;10.60;7.60;;;;;;;;;;5126525;27;20458;-75
2021/12/15 15:30:23;;;;;;;10.03;8.50;;;;;;;;;;5118381;27;20458;-74
2021/12/15 15:32:54;;;;;;;9.30;7.40;;;;;;;;;;5137523;27;21196;-74
2021/12/15 15:35:23;;;;;;;10.00;7.80;;;;;;;;;;5136017;27;20452;-74
2021/12/15 15:37:51;;;;;;;11.93;8.50;;;;;;;;;;5129898;27;20437;-74
2021/12/15 15:40:21;;;;;;;12.90;10.13;;;;;;;;;;5124084;27;20472;-74
2021/12/15 15:42:53;;;;;;;12.03;8.30;;;;;;;;;;5104989;28;20445;-73
2021/12/15 15:45:23;;;;;;;13.83;9.63;;;;;;;;;;5114163;27;20491;-75
2021/12/15 15:47:52;;;;;;;9.50;8.37;;;;;;;;;;5144676;27;20432;-74
2021/12/15 15:50:19;;;;;;;9.83;8.33;;;;;;;;;;5140152;27;20882;-75
2021/12/15 15:52:48;;;;;;;10.60;8.57;;;;;;;;;;5137227;27;20448;-74
2021/12/15 15:55:16;;;;;;;11.87;8.80;;;;;;;;;;5136347;27;20457;-74
2021/12/15 15:57:47;;;;;;;10.93;8.60;;;;;;;;;;5136682;27;20538;-74